Uneedus, Louisiana
Current Conditions -  °F | °C
As of 7:15 PM on Saturday 22 Nov 2014 (Local Time) from KHDC Reporting Station
Broken Clouds Broken Clouds  
Wind Chill: 63°   Ceiling: 1400
Heat Index: 63°   Visibility: 10mi
Dew Point: 57°   Wind: 7mph
Humidity: 82%   Direction: 100°E
Pressure: 30.02"   Gusts: NA
Location:  30.6305°N, 90.1949°W
Report Text: KHDC 230115Z AUTO 10006KT 10SM BKN014 BKN018 17/14 A3002 RMK AO2
Loading
Personal Weather Stations






























Interactive Weather Map New forecast layout! Learn more

10-Day Weather Forecast

Advertisements
Track Severe Weather on mobile